Time;durP1;ratioP1;P1;durP2;ratioP2;P2;SDS_P1;SDS_P2;PMS_P1;PMS_P2;Temp;Humidity;BMP_temperature;BMP_pressure;BME280_temperature;BME280_humidity;BME280_pressure;Samples;Min_cycle;Max_cycle;Signal;HPM_P1;HPM_P2
2021/12/28 00:01:15;;;;;;;65.80;29.33;;;0.90;99.90;;;;;;5030171;28;20212;-70
2021/12/28 00:03:42;;;;;;;59.90;29.23;;;0.90;99.90;;;;;;5032809;28;20275;-70
2021/12/28 00:06:09;;;;;;;66.93;30.20;;;1.00;99.90;;;;;;5032688;28;20530;-71
2021/12/28 00:08:35;;;;;;;69.37;31.73;;;1.00;99.90;;;;;;5033439;28;20271;-71
2021/12/28 00:11:01;;;;;;;59.50;29.83;;;1.00;99.90;;;;;;5031932;28;20297;-70
2021/12/28 00:13:27;;;;;;;61.13;30.27;;;1.00;99.90;;;;;;5031434;28;20640;-70
2021/12/28 00:18:23;;;;;;;62.87;31.73;;;0.90;99.90;;;;;;5032255;28;20173;-70
2021/12/28 00:20:53;;;;;;;67.83;32.77;;;0.90;99.90;;;;;;5033112;28;20282;-70
2021/12/28 00:23:22;;;;;;;69.70;33.00;;;0.80;99.90;;;;;;5031001;28;20634;-71
2021/12/28 00:25:50;;;;;;;80.60;32.93;;;0.80;99.90;;;;;;5030367;28;20280;-70
2021/12/28 00:28:16;;;;;;;74.13;34.63;;;0.80;99.90;;;;;;5033795;28;20239;-71
2021/12/28 00:30:42;;;;;;;67.23;32.27;;;0.80;99.90;;;;;;5033141;28;20219;-70
2021/12/28 00:33:09;;;;;;;70.53;33.37;;;0.80;99.90;;;;;;5032438;28;20678;-70
2021/12/28 00:35:39;;;;;;;65.27;30.30;;;0.70;99.90;;;;;;5033674;28;20212;-70
2021/12/28 00:38:06;;;;;;;69.03;32.33;;;0.80;99.90;;;;;;5030602;28;20270;-71
2021/12/28 00:40:32;;;;;;;71.20;31.23;;;0.80;99.90;;;;;;5030614;28;20209;-70
2021/12/28 00:42:58;;;;;;;67.90;31.97;;;0.80;99.90;;;;;;5032760;28;20187;-71
2021/12/28 00:45:24;;;;;;;62.23;30.20;;;0.80;99.90;;;;;;5027971;28;20184;-70
2021/12/28 00:47:50;;;;;;;60.13;28.23;;;0.80;99.90;;;;;;5030164;28;20593;-70
2021/12/28 00:50:17;;;;;;;61.40;29.63;;;0.90;99.90;;;;;;5032341;28;20212;-70
2021/12/28 00:52:43;;;;;;;57.13;27.87;;;0.90;99.90;;;;;;5033764;28;20639;-71
2021/12/28 00:55:13;;;;;;;54.20;30.43;;;0.90;99.90;;;;;;5029406;28;20219;-71
2021/12/28 00:57:38;;;;;;;58.87;28.23;;;0.90;99.90;;;;;;5028272;28;20185;-70
2021/12/28 01:00:08;;;;;;;58.13;29.37;;;0.80;99.90;;;;;;5033917;28;20234;-71
2021/12/28 01:02:34;;;;;;;59.73;31.67;;;0.80;99.90;;;;;;5031770;28;20341;-71
2021/12/28 01:04:59;;;;;;;51.20;24.87;;;0.80;99.90;;;;;;5032719;28;20278;-71
2021/12/28 01:07:25;;;;;;;53.57;26.80;;;0.80;99.90;;;;;;5032443;28;20600;-70
2021/12/28 01:09:51;;;;;;;55.30;27.50;;;0.80;99.90;;;;;;5032220;28;20215;-70
2021/12/28 01:12:16;;;;;;;60.37;29.30;;;0.70;99.90;;;;;;5031308;28;20659;-70
2021/12/28 01:14:42;;;;;;;47.90;26.97;;;0.70;99.90;;;;;;5032857;28;20312;-70
2021/12/28 01:17:08;;;;;;;52.53;27.20;;;0.60;99.90;;;;;;5030960;28;20388;-70
2021/12/28 01:19:34;;;;;;;52.90;26.33;;;0.60;99.90;;;;;;5032048;28;20188;-71
2021/12/28 01:22:03;;;;;;;51.17;25.70;;;0.60;99.90;;;;;;5033520;28;20241;-70
2021/12/28 01:24:30;;;;;;;44.00;24.13;;;0.60;99.90;;;;;;5031244;28;20613;-71
2021/12/28 01:26:57;;;;;;;46.50;23.30;;;0.60;99.90;;;;;;5030279;28;20199;-70
2021/12/28 01:29:23;;;;;;;43.93;24.00;;;0.60;99.90;;;;;;5030556;28;20196;-71
2021/12/28 01:31:48;;;;;;;49.00;24.03;;;0.50;99.90;;;;;;5032323;28;20735;-70
2021/12/28 01:34:14;;;;;;;42.03;22.13;;;0.60;99.90;;;;;;5032485;28;20246;-70
2021/12/28 01:36:40;;;;;;;40.67;20.37;;;0.60;99.90;;;;;;5030397;28;20188;-70
2021/12/28 01:39:07;;;;;;;36.20;20.53;;;0.70;99.90;;;;;;5030812;28;20274;-70
2021/12/28 01:41:34;;;;;;;36.87;21.47;;;0.60;99.90;;;;;;5030742;28;20251;-71
2021/12/28 01:44:04;;;;;;;38.60;21.87;;;0.60;99.90;;;;;;5032028;28;20533;-70
2021/12/28 01:46:30;;;;;;;35.80;19.60;;;0.60;99.90;;;;;;5029651;28;20189;-70
2021/12/28 01:48:56;;;;;;;37.53;19.90;;;0.60;99.90;;;;;;5033045;28;20224;-70
2021/12/28 01:51:24;;;;;;;38.10;22.03;;;0.60;99.90;;;;;;5038054;28;20616;-70
2021/12/28 01:53:53;;;;;;;41.77;20.90;;;0.60;99.90;;;;;;5028480;28;20201;-71
2021/12/28 01:56:25;;;;;;;37.60;20.73;;;0.50;99.90;;;;;;5026374;28;20192;-70
2021/12/28 01:58:52;;;;;;;35.60;19.23;;;0.50;99.90;;;;;;5033969;28;20187;-70
2021/12/28 02:01:18;;;;;;;35.90;19.27;;;0.60;99.90;;;;;;5028114;28;20216;-70
2021/12/28 02:03:44;;;;;;;30.57;18.97;;;0.60;99.90;;;;;;5030436;28;20255;-70
2021/12/28 02:06:11;;;;;;;31.30;18.73;;;0.60;99.90;;;;;;5030084;28;20517;-70
2021/12/28 02:08:37;;;;;;;32.20;17.37;;;0.60;99.90;;;;;;5027429;28;20192;-70
2021/12/28 02:11:04;;;;;;;31.87;18.80;;;0.60;99.90;;;;;;5031377;28;20207;-70
2021/12/28 02:13:30;;;;;;;30.97;18.23;;;0.60;99.90;;;;;;5027137;28;20203;-70
2021/12/28 02:15:58;;;;;;;32.20;18.13;;;0.60;99.90;;;;;;5026890;28;20200;-70
2021/12/28 02:18:26;;;;;;;31.17;18.17;;;0.50;99.90;;;;;;5031450;28;20215;-70
2021/12/28 02:20:53;;;;;;;32.57;18.43;;;0.50;99.90;;;;;;5031393;28;20197;-70
2021/12/28 02:23:19;;;;;;;28.53;17.80;;;0.40;99.90;;;;;;5029940;28;20286;-70
2021/12/28 02:25:44;;;;;;;28.30;17.03;;;0.50;99.90;;;;;;5031070;28;20342;-70
2021/12/28 02:28:13;;;;;;;29.90;16.43;;;0.60;99.90;;;;;;5031367;28;20263;-71
2021/12/28 02:30:42;;;;;;;26.93;16.47;;;0.50;99.90;;;;;;5029849;28;20204;-70
2021/12/28 02:33:08;;;;;;;30.17;18.03;;;0.50;99.90;;;;;;5030867;28;20180;-70
2021/12/28 02:35:35;;;;;;;31.73;17.57;;;0.60;99.90;;;;;;5025555;28;20701;-70
2021/12/28 02:38:02;;;;;;;31.07;17.63;;;0.60;99.90;;;;;;5028415;28;20188;-70
2021/12/28 02:40:30;;;;;;;32.77;18.57;;;0.60;99.90;;;;;;5029302;28;20262;-70
2021/12/28 02:42:59;;;;;;;24.47;15.97;;;0.60;99.90;;;;;;5028479;28;20215;-70
2021/12/28 02:45:28;;;;;;;26.83;16.73;;;0.60;99.90;;;;;;5026736;28;20195;-71
2021/12/28 02:47:54;;;;;;;30.20;17.70;;;0.60;99.90;;;;;;5026659;28;20216;-70
2021/12/28 02:50:22;;;;;;;28.90;16.13;;;0.60;99.90;;;;;;5030596;28;20263;-71
2021/12/28 02:52:48;;;;;;;27.83;17.10;;;0.60;99.90;;;;;;5032013;28;20602;-70
2021/12/28 02:55:19;;;;;;;27.73;16.13;;;0.60;99.90;;;;;;5022752;28;20208;-70
2021/12/28 02:57:51;;;;;;;25.87;15.00;;;0.60;99.90;;;;;;5027590;28;20191;-70
2021/12/28 03:00:48;;;;;;;27.10;15.07;;;0.60;99.90;;;;;;5028527;28;20222;-71
2021/12/28 03:03:20;;;;;;;27.97;17.63;;;0.70;99.90;;;;;;5027756;28;20176;-71
2021/12/28 03:05:48;;;;;;;30.60;17.67;;;0.60;99.90;;;;;;5024609;28;20200;-69
2021/12/28 03:08:16;;;;;;;26.27;15.77;;;0.60;99.90;;;;;;5029991;28;20227;-70
2021/12/28 03:10:42;;;;;;;28.47;15.93;;;0.60;99.90;;;;;;5028213;28;20204;-70
2021/12/28 03:13:13;;;;;;;30.27;17.40;;;0.60;99.90;;;;;;5032778;28;20184;-71
2021/12/28 03:15:39;;;;;;;28.30;18.23;;;0.60;99.90;;;;;;5018947;28;20621;-70
2021/12/28 03:18:04;;;;;;;32.13;18.47;;;0.60;99.90;;;;;;5019350;28;20182;-70
2021/12/28 03:20:30;;;;;;;33.73;19.00;;;0.60;99.90;;;;;;5014999;28;20201;-71
2021/12/28 03:22:56;;;;;;;35.43;19.30;;;0.50;99.90;;;;;;5018729;28;20189;-71
2021/12/28 03:25:22;;;;;;;32.40;18.83;;;0.50;99.90;;;;;;5016219;28;20704;-70
2021/12/28 03:27:48;;;;;;;30.63;17.50;;;0.60;99.90;;;;;;5017730;28;20204;-71
2021/12/28 03:30:16;;;;;;;32.67;17.70;;;0.60;99.90;;;;;;5016291;28;20666;-70
2021/12/28 03:32:42;;;;;;;29.50;18.37;;;0.70;99.90;;;;;;5022767;28;20651;-70
2021/12/28 03:35:10;;;;;;;28.80;18.33;;;0.70;99.90;;;;;;5032250;28;20208;-70
2021/12/28 03:37:36;;;;;;;29.23;17.90;;;0.80;99.90;;;;;;5028613;28;20173;-70
2021/12/28 03:40:07;;;;;;;30.57;18.43;;;0.70;99.90;;;;;;5031532;28;20208;-70
2021/12/28 03:42:32;;;;;;;31.30;19.53;;;0.70;99.90;;;;;;5028599;28;20200;-70
2021/12/28 03:44:58;;;;;;;33.80;18.97;;;0.80;99.90;;;;;;5028596;28;20676;-70
2021/12/28 03:47:24;;;;;;;32.20;20.37;;;0.80;99.90;;;;;;5029436;28;20185;-70
2021/12/28 03:49:49;;;;;;;30.37;19.27;;;0.70;99.90;;;;;;5034307;28;20208;-70
2021/12/28 03:52:15;;;;;;;36.03;22.23;;;0.70;99.90;;;;;;5036292;28;20180;-70
2021/12/28 03:54:40;;;;;;;36.70;20.80;;;0.70;99.90;;;;;;5027853;28;20550;-70
2021/12/28 03:57:06;;;;;;;39.67;22.47;;;0.70;99.90;;;;;;5034164;28;20177;-70
2021/12/28 03:59:32;;;;;;;39.03;21.83;;;0.70;99.90;;;;;;5032178;28;20276;-70
2021/12/28 04:01:58;;;;;;;37.17;22.70;;;0.70;99.90;;;;;;5035887;28;20204;-70
2021/12/28 04:04:23;;;;;;;33.17;21.67;;;0.80;99.90;;;;;;5032093;28;20181;-70
2021/12/28 04:06:50;;;;;;;39.77;22.23;;;0.80;99.90;;;;;;5034278;28;20252;-70
2021/12/28 04:09:33;;;;;;;37.37;23.63;;;0.90;99.90;;;;;;5033963;28;20181;-71
2021/12/28 04:11:59;;;;;;;38.17;22.27;;;0.80;99.90;;;;;;5032705;28;20227;-69
2021/12/28 04:14:25;;;;;;;40.47;24.43;;;0.80;99.90;;;;;;5029468;28;20237;-70
2021/12/28 04:16:50;;;;;;;40.60;24.40;;;0.80;99.90;;;;;;5033795;28;20185;-70
2021/12/28 04:19:16;;;;;;;50.90;25.10;;;0.80;99.90;;;;;;5033974;28;20191;-70
2021/12/28 04:21:42;;;;;;;42.53;24.53;;;0.80;99.90;;;;;;5032615;28;20238;-70
2021/12/28 04:24:07;;;;;;;42.93;24.13;;;0.80;99.90;;;;;;5031058;28;20207;-70
2021/12/28 04:26:33;;;;;;;41.63;23.67;;;0.80;99.90;;;;;;5033929;28;20189;-70
2021/12/28 04:28:59;;;;;;;38.50;22.30;;;0.80;99.90;;;;;;5031952;28;20199;-70
2021/12/28 04:31:24;;;;;;;43.73;24.43;;;0.80;99.90;;;;;;5032711;28;20204;-70
2021/12/28 04:33:50;;;;;;;43.63;25.27;;;0.80;99.90;;;;;;5033665;28;20706;-70
2021/12/28 04:36:16;;;;;;;43.57;24.60;;;0.80;99.90;;;;;;5034561;28;20265;-70
2021/12/28 04:38:44;;;;;;;46.03;25.43;;;0.70;99.90;;;;;;5031207;28;20181;-70
2021/12/28 04:41:11;;;;;;;47.13;25.20;;;0.70;99.90;;;;;;5032075;28;20211;-70
2021/12/28 04:43:37;;;;;;;39.93;22.40;;;0.70;99.90;;;;;;5032511;28;20184;-70
2021/12/28 04:46:04;;;;;;;46.43;24.33;;;0.80;99.90;;;;;;5033708;28;20180;-71
2021/12/28 04:48:30;;;;;;;40.03;23.43;;;0.80;99.90;;;;;;5032884;28;20185;-70
2021/12/28 04:50:56;;;;;;;45.47;23.07;;;0.80;99.90;;;;;;5032237;28;20212;-70
2021/12/28 04:53:22;;;;;;;44.03;22.73;;;0.90;99.90;;;;;;5037940;28;20184;-70
2021/12/28 04:55:49;;;;;;;40.00;23.20;;;1.00;99.90;;;;;;5032125;28;20210;-70
2021/12/28 04:58:15;;;;;;;39.77;22.73;;;1.00;99.90;;;;;;5032757;28;20563;-70
2021/12/28 05:00:43;;;;;;;41.57;24.87;;;1.00;99.90;;;;;;5025609;28;20726;-70
2021/12/28 05:03:09;;;;;;;45.23;25.80;;;0.90;99.90;;;;;;5031891;28;20199;-70
2021/12/28 05:05:36;;;;;;;45.07;25.40;;;0.90;99.90;;;;;;5034102;28;20188;-70
2021/12/28 05:08:05;;;;;;;49.43;24.90;;;0.80;99.90;;;;;;5033491;28;20197;-70
2021/12/28 05:10:32;;;;;;;46.10;23.27;;;0.80;99.90;;;;;;5034424;28;20196;-70
2021/12/28 05:12:57;;;;;;;48.50;25.60;;;0.90;99.90;;;;;;5035218;28;20235;-70
2021/12/28 05:15:23;;;;;;;45.73;25.47;;;0.90;99.90;;;;;;5033382;28;20208;-70
2021/12/28 05:17:48;;;;;;;40.87;22.07;;;0.90;99.90;;;;;;5032713;28;20632;-70
2021/12/28 05:20:14;;;;;;;40.87;23.13;;;0.90;99.90;;;;;;5032204;28;20204;-71
2021/12/28 05:22:40;;;;;;;42.70;23.43;;;0.90;99.90;;;;;;5033587;28;20185;-70
2021/12/28 05:25:07;;;;;;;43.60;23.20;;;1.00;99.90;;;;;;5034371;28;20310;-70
2021/12/28 05:27:32;;;;;;;44.20;24.53;;;1.00;99.90;;;;;;5033832;28;20202;-70
2021/12/28 05:29:58;;;;;;;49.00;25.10;;;1.00;99.90;;;;;;5032141;28;20558;-70
2021/12/28 05:32:24;;;;;;;46.97;24.00;;;1.00;99.90;;;;;;5034648;28;20188;-70
2021/12/28 05:34:49;;;;;;;46.10;25.30;;;1.00;99.90;;;;;;5033184;28;20254;-70
2021/12/28 05:37:15;;;;;;;46.27;25.47;;;1.00;99.90;;;;;;5033220;28;20203;-70
2021/12/28 05:39:41;;;;;;;49.27;25.13;;;1.00;99.90;;;;;;5032587;28;20181;-70
2021/12/28 05:42:07;;;;;;;47.23;25.57;;;1.00;99.90;;;;;;5033386;28;20191;-70
2021/12/28 05:44:33;;;;;;;41.77;22.37;;;0.90;99.90;;;;;;5032490;28;20189;-70
2021/12/28 05:46:58;;;;;;;46.07;26.00;;;0.90;99.90;;;;;;5033322;28;20195;-70
2021/12/28 05:49:24;;;;;;;50.10;26.33;;;1.00;99.90;;;;;;5033910;28;20557;-70
2021/12/28 05:51:50;;;;;;;52.60;28.13;;;1.00;99.90;;;;;;5049106;28;20180;-70
2021/12/28 05:54:17;;;;;;;51.67;26.40;;;0.90;99.90;;;;;;5030927;28;20663;-70
2021/12/28 05:56:43;;;;;;;47.20;26.73;;;0.90;99.90;;;;;;5033378;28;20683;-70
2021/12/28 05:59:09;;;;;;;47.47;25.17;;;0.90;99.90;;;;;;5029593;28;20577;-71
2021/12/28 06:01:35;;;;;;;49.03;25.93;;;0.90;99.90;;;;;;5029431;28;20204;-70
2021/12/28 06:04:01;;;;;;;43.93;27.17;;;0.90;99.90;;;;;;5031534;28;20279;-70
2021/12/28 06:06:27;;;;;;;53.40;26.97;;;0.90;99.90;;;;;;5027076;28;20184;-70
2021/12/28 06:08:53;;;;;;;56.00;27.27;;;0.90;99.90;;;;;;5034251;28;20189;-70
2021/12/28 06:11:19;;;;;;;47.77;26.87;;;0.80;99.90;;;;;;5031484;28;20242;-70
2021/12/28 06:13:45;;;;;;;42.57;25.23;;;0.80;99.90;;;;;;5031002;28;20191;-70
2021/12/28 06:16:11;;;;;;;49.33;26.27;;;0.90;99.90;;;;;;5030807;28;20708;-70
2021/12/28 06:18:37;;;;;;;45.40;24.43;;;0.90;99.90;;;;;;5032802;28;20185;-70
2021/12/28 06:21:04;;;;;;;47.97;26.30;;;0.90;99.90;;;;;;5024502;28;20295;-70
2021/12/28 06:23:29;;;;;;;47.30;25.80;;;0.90;99.90;;;;;;5031639;28;20214;-70
2021/12/28 06:25:55;;;;;;;54.27;27.20;;;0.80;99.90;;;;;;5024761;28;20718;-70
2021/12/28 06:28:21;;;;;;;48.20;26.60;;;0.80;99.90;;;;;;5027672;28;20237;-70
2021/12/28 06:30:46;;;;;;;47.63;25.53;;;0.90;99.90;;;;;;5030701;28;20200;-71
2021/12/28 06:33:14;;;;;;;44.90;24.60;;;0.90;99.90;;;;;;5031705;28;20682;-70
2021/12/28 06:35:39;;;;;;;42.80;24.00;;;1.00;99.90;;;;;;5027641;28;20209;-70
2021/12/28 06:38:05;;;;;;;45.33;24.10;;;1.00;99.90;;;;;;5026937;28;20188;-71
2021/12/28 06:40:31;;;;;;;49.13;28.07;;;0.90;99.90;;;;;;5027452;28;20288;-70
2021/12/28 06:42:56;;;;;;;43.37;23.57;;;0.90;99.90;;;;;;5031367;28;20172;-71
2021/12/28 06:45:22;;;;;;;40.33;23.03;;;0.90;99.90;;;;;;5031426;28;20275;-71
2021/12/28 06:47:48;;;;;;;41.63;24.33;;;1.00;99.90;;;;;;5020646;28;20180;-72
2021/12/28 06:50:14;;;;;;;42.77;23.43;;;0.90;99.90;;;;;;5021825;28;20334;-72
2021/12/28 06:52:40;;;;;;;43.77;26.03;;;0.90;99.90;;;;;;5017862;28;20575;-72
2021/12/28 06:55:08;;;;;;;48.43;24.73;;;0.90;99.90;;;;;;5021399;28;20233;-71
2021/12/28 06:57:33;;;;;;;45.00;23.40;;;0.90;99.90;;;;;;5019809;28;20714;-72
2021/12/28 07:00:00;;;;;;;43.93;24.47;;;0.80;99.90;;;;;;5028509;28;20219;-72
2021/12/28 07:02:26;;;;;;;51.07;25.03;;;0.80;99.90;;;;;;5024633;28;20191;-71
2021/12/28 07:04:52;;;;;;;42.03;25.13;;;0.80;99.90;;;;;;5033186;28;20188;-71
2021/12/28 07:07:18;;;;;;;47.17;24.90;;;0.80;99.90;;;;;;5029724;28;20190;-72
2021/12/28 07:09:44;;;;;;;43.73;22.60;;;0.80;99.90;;;;;;5028513;28;20689;-72
2021/12/28 07:12:12;;;;;;;41.93;23.33;;;0.80;99.90;;;;;;5027586;28;20189;-72
2021/12/28 07:14:38;;;;;;;44.27;25.37;;;0.90;99.90;;;;;;5027609;28;20208;-72
2021/12/28 07:17:04;;;;;;;48.03;25.87;;;0.90;99.90;;;;;;5030151;28;20192;-72
2021/12/28 07:19:30;;;;;;;49.87;25.37;;;0.90;99.90;;;;;;5030540;28;20219;-72
2021/12/28 07:21:56;;;;;;;43.43;24.57;;;0.90;99.90;;;;;;5031436;28;20220;-72
2021/12/28 07:24:21;;;;;;;44.70;24.40;;;1.00;99.90;;;;;;5026116;28;20291;-72
2021/12/28 07:26:47;;;;;;;42.17;24.10;;;1.00;99.90;;;;;;5035031;28;20242;-72
2021/12/28 07:29:13;;;;;;;53.43;26.47;;;1.00;99.90;;;;;;5033018;28;20188;-72
2021/12/28 07:31:40;;;;;;;46.07;24.87;;;1.00;99.90;;;;;;5031355;28;20708;-73
2021/12/28 07:34:06;;;;;;;49.23;25.50;;;1.10;99.90;;;;;;5033355;28;20226;-73
2021/12/28 07:36:32;;;;;;;46.93;24.97;;;1.00;99.90;;;;;;5032754;28;20656;-74
2021/12/28 07:38:58;;;;;;;42.43;23.97;;;1.10;99.90;;;;;;5036078;28;20833;-74
2021/12/28 07:41:24;;;;;;;39.90;22.53;;;1.00;99.90;;;;;;5030920;28;20264;-74
2021/12/28 07:43:50;;;;;;;42.30;24.57;;;1.10;99.90;;;;;;5033534;28;20188;-74
2021/12/28 07:46:16;;;;;;;46.43;24.07;;;1.10;99.90;;;;;;5029681;28;20177;-73
2021/12/28 07:48:41;;;;;;;44.53;25.53;;;1.10;99.90;;;;;;5021086;28;20542;-73
2021/12/28 07:51:08;;;;;;;49.70;25.53;;;1.10;99.90;;;;;;5024128;28;20260;-73
2021/12/28 07:53:34;;;;;;;49.27;25.83;;;1.00;99.90;;;;;;5021766;28;20197;-73
2021/12/28 07:56:01;;;;;;;45.87;25.57;;;1.00;99.90;;;;;;5021277;28;20204;-73
2021/12/28 07:58:28;;;;;;;47.23;25.63;;;0.90;99.90;;;;;;5019702;28;20178;-74
2021/12/28 08:00:54;;;;;;;40.90;21.13;;;0.90;99.90;;;;;;5026418;28;20205;-73
2021/12/28 08:03:22;;;;;;;45.10;23.70;;;0.90;99.90;;;;;;5020926;28;20207;-73
2021/12/28 08:05:48;;;;;;;39.20;22.23;;;0.90;99.90;;;;;;5032500;28;20262;-73
2021/12/28 08:08:14;;;;;;;40.17;22.07;;;0.90;99.90;;;;;;5033914;28;20266;-74
2021/12/28 08:10:40;;;;;;;38.37;21.17;;;0.90;99.90;;;;;;5029443;28;20228;-74
2021/12/28 08:13:06;;;;;;;38.00;21.23;;;1.00;99.90;;;;;;5031357;28;20188;-73
2021/12/28 08:15:31;;;;;;;46.20;24.13;;;1.00;99.90;;;;;;5032340;28;20624;-73
2021/12/28 08:17:57;;;;;;;39.30;21.93;;;1.00;99.90;;;;;;5034780;28;20188;-73
2021/12/28 08:20:22;;;;;;;38.97;22.13;;;1.00;99.90;;;;;;5029813;28;20209;-73
2021/12/28 08:22:49;;;;;;;37.83;20.83;;;1.00;99.90;;;;;;5030214;28;20554;-73
2021/12/28 08:25:18;;;;;;;45.30;23.37;;;1.10;99.90;;;;;;5035917;28;20648;-73
2021/12/28 08:27:44;;;;;;;36.80;20.33;;;1.10;99.90;;;;;;5031056;28;20189;-73
2021/12/28 08:30:11;;;;;;;38.67;21.80;;;1.10;99.90;;;;;;5033033;28;20571;-73
2021/12/28 08:32:37;;;;;;;31.47;17.87;;;1.10;99.90;;;;;;5032314;28;20707;-74
2021/12/28 08:35:04;;;;;;;33.37;20.40;;;1.00;99.90;;;;;;5032313;28;20212;-74
2021/12/28 08:37:30;;;;;;;39.27;22.40;;;1.10;99.90;;;;;;5033412;28;20717;-74
2021/12/28 08:39:56;;;;;;;38.20;20.47;;;1.00;99.90;;;;;;5030323;28;20239;-74
2021/12/28 08:42:22;;;;;;;33.60;20.97;;;1.00;99.90;;;;;;5029570;28;20660;-74
2021/12/28 08:44:48;;;;;;;37.13;20.30;;;1.10;99.90;;;;;;5030346;28;20825;-74
2021/12/28 08:47:14;;;;;;;47.13;22.87;;;1.20;99.90;;;;;;5020360;28;20188;-73
2021/12/28 08:49:40;;;;;;;37.33;20.27;;;1.20;99.90;;;;;;5026193;28;20195;-74
2021/12/28 08:52:06;;;;;;;37.70;20.33;;;1.30;99.90;;;;;;5030022;28;20237;-74
2021/12/28 08:54:32;;;;;;;34.07;19.70;;;1.30;99.90;;;;;;5026525;28;20200;-74
2021/12/28 08:56:58;;;;;;;32.60;17.63;;;1.40;99.90;;;;;;5032575;28;20255;-74
2021/12/28 08:59:26;;;;;;;32.43;18.20;;;1.50;99.90;;;;;;5029836;28;20660;-74
2021/12/28 09:01:55;;;;;;;32.77;18.33;;;1.70;99.90;;;;;;5022038;28;20275;-74
2021/12/28 09:04:20;;;;;;;33.87;19.60;;;1.80;99.90;;;;;;5022306;28;20195;-74
2021/12/28 09:06:46;;;;;;;26.07;16.63;;;1.70;99.90;;;;;;5023831;28;20182;-74
2021/12/28 09:09:12;;;;;;;34.63;18.07;;;1.70;99.90;;;;;;5021793;28;20183;-74
2021/12/28 09:11:38;;;;;;;28.07;17.93;;;1.60;99.90;;;;;;5023867;28;20205;-74
2021/12/28 09:14:04;;;;;;;26.57;16.27;;;1.50;99.90;;;;;;5027629;28;20686;-74
2021/12/28 09:16:30;;;;;;;27.40;17.23;;;1.50;99.90;;;;;;5025644;28;20243;-74
2021/12/28 09:18:55;;;;;;;23.37;17.40;;;1.50;99.90;;;;;;5028691;28;20192;-74
2021/12/28 09:21:21;;;;;;;23.70;16.13;;;1.60;99.90;;;;;;5026952;28;20204;-73
2021/12/28 09:23:47;;;;;;;25.13;16.47;;;1.70;99.90;;;;;;5024223;28;20193;-74
2021/12/28 09:26:12;;;;;;;24.00;15.47;;;1.60;99.90;;;;;;5026149;28;20193;-74
2021/12/28 09:28:38;;;;;;;23.30;15.53;;;1.70;99.90;;;;;;5028946;28;20243;-74
2021/12/28 09:31:04;;;;;;;26.93;17.57;;;1.60;99.90;;;;;;5032711;28;20212;-73
2021/12/28 09:33:29;;;;;;;25.33;15.67;;;1.70;99.90;;;;;;5024262;28;20193;-73
2021/12/28 09:35:56;;;;;;;23.77;16.23;;;1.70;99.90;;;;;;5023261;28;20220;-73
2021/12/28 09:38:24;;;;;;;25.73;16.03;;;1.60;99.90;;;;;;5023568;28;20283;-74
2021/12/28 09:40:51;;;;;;;23.37;16.43;;;1.70;99.90;;;;;;5020557;28;20205;-73
2021/12/28 09:43:17;;;;;;;24.20;15.67;;;1.70;99.90;;;;;;5030393;28;20322;-73
2021/12/28 09:45:43;;;;;;;26.77;16.93;;;1.60;99.90;;;;;;5032107;28;20181;-72
2021/12/28 09:48:10;;;;;;;26.67;16.93;;;1.50;99.90;;;;;;5027998;28;20192;-73
2021/12/28 09:50:37;;;;;;;25.60;16.77;;;1.60;99.90;;;;;;5033106;28;20205;-72
2021/12/28 09:53:03;;;;;;;23.00;16.67;;;1.60;99.90;;;;;;5030282;28;20669;-74
2021/12/28 09:55:30;;;;;;;22.93;15.37;;;1.70;99.90;;;;;;5025890;28;20213;-72
2021/12/28 09:57:58;;;;;;;24.30;15.57;;;1.80;99.90;;;;;;5029606;28;20549;-73
2021/12/28 10:00:23;;;;;;;24.27;15.30;;;1.80;99.90;;;;;;5021911;28;20246;-73
2021/12/28 10:02:51;;;;;;;24.30;15.90;;;2.00;99.90;;;;;;5027503;28;20185;-73
2021/12/28 10:05:21;;;;;;;23.47;14.83;;;2.10;99.90;;;;;;5019667;28;20202;-74
2021/12/28 10:07:59;;;;;;;19.93;14.87;;;2.00;99.90;;;;;;5018774;28;20192;-73
2021/12/28 10:10:47;;;;;;;23.63;16.57;;;2.00;99.90;;;;;;5020718;28;20224;-72
2021/12/28 10:13:21;;;;;;;25.17;15.13;;;2.00;99.90;;;;;;5034301;28;20570;-73
2021/12/28 10:15:49;;;;;;;24.17;16.93;;;2.00;99.90;;;;;;5025865;28;20226;-73
2021/12/28 10:18:16;;;;;;;28.03;18.00;;;2.00;99.90;;;;;;5029081;28;20176;-73
2021/12/28 10:20:54;;;;;;;23.97;16.53;;;1.90;99.90;;;;;;5019099;28;20619;-73
2021/12/28 10:23:23;;;;;;;26.03;17.70;;;1.90;99.90;;;;;;5017714;28;20276;-73
2021/12/28 10:25:53;;;;;;;26.17;17.80;;;2.10;99.90;;;;;;5031001;28;20234;-71
2021/12/28 10:28:22;;;;;;;26.43;19.03;;;2.20;99.90;;;;;;5028769;28;20176;-71
2021/12/28 10:30:53;;;;;;;27.77;17.97;;;2.30;99.90;;;;;;5026466;28;20213;-72
2021/12/28 10:33:22;;;;;;;27.80;18.90;;;2.30;99.90;;;;;;5028831;28;20204;-72
2021/12/28 10:35:51;;;;;;;27.60;18.40;;;2.30;99.90;;;;;;5031429;28;20660;-72
2021/12/28 10:38:19;;;;;;;29.07;19.13;;;2.50;99.90;;;;;;5026081;28;20179;-71
2021/12/28 10:40:52;;;;;;;26.33;18.27;;;2.60;99.90;;;;;;5026716;28;20196;-72
2021/12/28 10:43:28;;;;;;;32.73;19.90;;;2.70;99.90;;;;;;5023114;28;20191;-71
2021/12/28 10:45:59;;;;;;;30.00;19.93;;;2.60;99.90;;;;;;5027889;28;21872;-71
2021/12/28 10:48:28;;;;;;;35.20;19.93;;;2.60;99.90;;;;;;5026984;28;20272;-71
2021/12/28 10:51:09;;;;;;;28.30;19.77;;;2.50;99.90;;;;;;5024448;28;20208;-72
2021/12/28 10:54:01;;;;;;;28.47;19.80;;;2.60;99.90;;;;;;5027109;28;20319;-72
2021/12/28 10:56:28;;;;;;;26.97;17.53;;;2.60;99.90;;;;;;5048385;28;20668;-72
2021/12/28 10:58:54;;;;;;;25.47;18.53;;;2.60;99.90;;;;;;5017856;28;20637;-72
2021/12/28 11:01:26;;;;;;;29.47;19.43;;;2.60;99.90;;;;;;5026111;28;20219;-72
2021/12/28 11:04:03;;;;;;;28.17;19.33;;;2.60;99.90;;;;;;5030995;28;20185;-71
2021/12/28 11:06:30;;;;;;;28.20;18.67;;;2.60;99.90;;;;;;5034355;28;20172;-72
2021/12/28 11:09:06;;;;;;;29.70;20.60;;;2.70;99.90;;;;;;5037262;28;20180;-72
2021/12/28 11:11:34;;;;;;;29.73;19.60;;;2.80;99.90;;;;;;5034860;28;20529;-72
2021/12/28 11:14:13;;;;;;;27.20;19.43;;;2.80;99.90;;;;;;5029004;28;20264;-72
2021/12/28 11:16:39;;;;;;;29.27;19.93;;;2.70;99.90;;;;;;5037068;28;20176;-70
2021/12/28 11:19:08;;;;;;;28.87;18.53;;;2.80;99.90;;;;;;5028265;28;20185;-70
2021/12/28 11:21:49;;;;;;;27.63;19.53;;;2.70;99.90;;;;;;5030092;28;20193;-71
2021/12/28 11:24:15;;;;;;;27.27;18.63;;;2.60;99.90;;;;;;5029349;28;20279;-70
2021/12/28 11:26:46;;;;;;;28.10;19.70;;;2.60;99.90;;;;;;5028288;28;20188;-72
2021/12/28 11:29:22;;;;;;;27.33;19.33;;;2.50;99.90;;;;;;5024107;28;20173;-72
2021/12/28 11:31:51;;;;;;;28.23;19.33;;;2.40;99.90;;;;;;5034137;28;20603;-72
2021/12/28 11:34:23;;;;;;;27.67;18.47;;;2.30;99.90;;;;;;5032630;28;20200;-73
2021/12/28 11:36:52;;;;;;;30.60;19.27;;;2.30;99.90;;;;;;5035981;28;20246;-73
2021/12/28 11:39:22;;;;;;;30.07;20.43;;;2.20;99.90;;;;;;5029966;28;20173;-72
2021/12/28 11:41:49;;;;;;;26.93;18.40;;;2.20;99.90;;;;;;5030029;28;20231;-72
2021/12/28 11:44:17;;;;;;;28.03;19.27;;;2.10;99.90;;;;;;5028829;28;20184;-72
2021/12/28 11:46:43;;;;;;;29.40;20.23;;;2.20;99.90;;;;;;5033426;28;20197;-71
2021/12/28 11:49:11;;;;;;;28.40;19.87;;;2.30;99.90;;;;;;5030203;28;20189;-72
2021/12/28 11:51:38;;;;;;;27.40;18.93;;;2.30;99.90;;;;;;5034359;28;20603;-72
2021/12/28 11:54:07;;;;;;;27.07;18.60;;;2.40;99.90;;;;;;5032691;28;20189;-73
2021/12/28 11:56:40;;;;;;;27.50;18.93;;;2.40;99.90;;;;;;5028686;28;20208;-72
2021/12/28 11:59:16;;;;;;;27.43;18.60;;;2.50;99.90;;;;;;5017598;28;20175;-72
2021/12/28 12:01:57;;;;;;;28.57;20.20;;;2.50;99.90;;;;;;5018043;28;20664;-73
2021/12/28 12:04:34;;;;;;;23.50;18.10;;;2.50;99.90;;;;;;5018272;28;20187;-73
2021/12/28 12:07:05;;;;;;;28.93;18.27;;;2.60;99.90;;;;;;5018971;28;20185;-72
2021/12/28 12:09:50;;;;;;;26.90;18.27;;;2.60;99.90;;;;;;5027746;28;20261;-72
2021/12/28 12:12:21;;;;;;;26.77;18.40;;;2.70;99.90;;;;;;5030114;28;20181;-73
2021/12/28 12:14:57;;;;;;;22.27;17.27;;;2.70;99.90;;;;;;5027745;28;20201;-72
2021/12/28 12:17:31;;;;;;;25.67;17.87;;;2.60;99.90;;;;;;5022290;28;20175;-72
2021/12/28 12:20:04;;;;;;;24.63;17.77;;;2.50;99.90;;;;;;5027771;28;20206;-72
2021/12/28 12:22:29;;;;;;;28.67;19.37;;;2.50;99.90;;;;;;5028097;28;20185;-72
2021/12/28 12:24:57;;;;;;;25.83;17.87;;;2.40;99.90;;;;;;5031595;28;20192;-72
2021/12/28 12:27:54;;;;;;;31.13;20.63;;;2.40;99.90;;;;;;5035033;28;20179;-71
2021/12/28 12:30:27;;;;;;;26.20;17.77;;;2.30;99.90;;;;;;5022111;28;20211;-72
2021/12/28 12:32:59;;;;;;;30.17;19.33;;;2.30;99.90;;;;;;5056985;28;20213;-72
2021/12/28 12:35:50;;;;;;;27.50;18.57;;;2.30;99.90;;;;;;5019737;28;20200;-72
2021/12/28 12:38:16;;;;;;;29.07;18.80;;;2.40;99.90;;;;;;5029072;28;20177;-72
2021/12/28 12:41:03;;;;;;;24.07;17.57;;;2.50;99.90;;;;;;5023304;28;20699;-72